createdAt,value
2019-05-22T00:00:29.386Z,87.20
2019-05-22T00:01:29.377Z,87.20
2019-05-22T00:02:29.393Z,87.81
2019-05-22T00:03:29.351Z,87.51
2019-05-22T00:04:29.347Z,86.90
2019-05-22T00:05:29.331Z,87.37
2019-05-22T00:06:29.319Z,87.61
2019-05-22T00:07:29.332Z,87.10
2019-05-22T00:08:29.297Z,86.96
2019-05-22T00:09:29.292Z,86.86
2019-05-22T00:10:29.280Z,86.69
2019-05-22T00:11:29.267Z,86.45
2019-05-22T00:12:45.476Z,86.55
2019-05-22T00:13:30.247Z,86.65
2019-05-22T00:14:29.245Z,86.65
2019-05-22T00:15:29.242Z,86.59
2019-05-22T00:16:29.210Z,86.49
2019-05-22T00:17:29.232Z,86.69
2019-05-22T00:18:29.198Z,86.35
2019-05-22T00:19:29.179Z,85.98
2019-05-22T00:20:29.164Z,86.39
2019-05-22T00:21:29.155Z,86.25
2019-05-22T00:22:29.144Z,86.55
2019-05-22T00:23:29.158Z,86.45
2019-05-22T00:24:29.123Z,86.29
2019-05-22T00:25:29.107Z,86.04
2019-05-22T00:26:29.103Z,86.39
2019-05-22T00:27:29.093Z,85.98
2019-05-22T00:28:29.104Z,86.15
2019-05-22T00:29:29.083Z,86.45
2019-05-22T00:30:29.056Z,86.25
2019-05-22T00:31:29.045Z,86.35
2019-05-22T00:32:29.029Z,86.35
2019-05-22T00:33:29.046Z,86.08
2019-05-22T00:34:29.013Z,85.53
2019-05-22T00:35:29.007Z,85.43
2019-05-22T00:36:28.992Z,85.37
2019-05-22T00:37:28.979Z,84.86
2019-05-22T00:38:29.002Z,85.06
2019-05-22T00:39:28.960Z,84.82
2019-05-22T00:40:29.026Z,85.06
2019-05-22T00:41:28.933Z,84.72
2019-05-22T00:42:28.947Z,85.23
2019-05-22T00:43:28.930Z,84.86
2019-05-22T00:44:28.909Z,84.92
2019-05-22T00:45:28.952Z,84.76
2019-05-22T00:46:28.885Z,85.06
2019-05-22T00:47:28.873Z,84.92
2019-05-22T00:48:28.955Z,84.82
2019-05-22T00:49:28.872Z,84.86
2019-05-22T00:50:28.918Z,85.68
2019-05-22T00:51:28.823Z,84.97
2019-05-22T00:52:28.815Z,84.76
2019-05-22T00:53:28.840Z,85.17
2019-05-22T00:54:28.859Z,84.86
2019-05-22T00:55:28.782Z,84.86
2019-05-22T00:56:28.784Z,85.17
2019-05-22T00:57:28.753Z,85.27
2019-05-22T00:58:28.835Z,85.47
2019-05-22T00:59:28.758Z,85.58
2019-05-22T01:00:28.718Z,84.97
2019-05-22T01:01:28.707Z,85.06
2019-05-22T01:02:28.703Z,85.72
2019-05-22T01:03:28.689Z,85.17
2019-05-22T01:04:28.707Z,85.47
2019-05-22T01:05:28.670Z,85.00
2019-05-22T01:06:28.688Z,84.70
2019-05-22T01:07:28.641Z,85.17
2019-05-22T01:08:28.639Z,85.27
2019-05-22T01:09:28.662Z,85.11
2019-05-22T01:10:28.619Z,85.00
2019-05-22T01:11:28.598Z,84.70
2019-05-22T01:12:28.592Z,84.90
2019-05-22T01:13:28.572Z,84.90
2019-05-22T01:14:41.882Z,84.90
2019-05-22T01:15:29.554Z,84.80
2019-05-22T01:16:28.541Z,85.27
2019-05-22T01:17:28.538Z,84.25
2019-05-22T01:18:28.520Z,84.29
2019-05-22T01:19:28.541Z,84.19
2019-05-22T01:20:28.501Z,83.98
2019-05-22T01:21:28.488Z,84.19
2019-05-22T01:22:28.472Z,84.39
2019-05-22T01:23:28.477Z,84.45
2019-05-22T01:24:28.486Z,84.29
2019-05-22T01:25:28.454Z,84.15
2019-05-22T01:26:28.435Z,84.19
2019-05-22T01:27:28.424Z,84.29
2019-05-22T01:28:28.409Z,83.89
2019-05-22T01:29:28.427Z,83.78
2019-05-22T01:30:28.457Z,83.98
2019-05-22T01:31:28.381Z,83.89
2019-05-22T01:32:28.402Z,84.29
2019-05-22T01:33:28.351Z,84.19
2019-05-22T01:34:28.410Z,84.09
2019-05-22T01:35:28.332Z,84.19
2019-05-22T01:36:28.319Z,84.19
2019-05-22T01:37:28.309Z,84.12
2019-05-22T01:38:28.303Z,84.29
2019-05-22T01:39:28.325Z,83.68
2019-05-22T01:40:28.302Z,84.09
2019-05-22T01:41:28.273Z,84.09
2019-05-22T01:42:28.254Z,83.89
2019-05-22T01:43:28.249Z,83.98
2019-05-22T01:44:28.234Z,84.09
2019-05-22T01:45:28.250Z,83.89
2019-05-22T01:46:28.212Z,84.09
2019-05-22T01:47:28.193Z,83.48
2019-05-22T01:48:28.180Z,84.09
2019-05-22T01:49:28.183Z,83.78
2019-05-22T01:50:28.190Z,83.98
2019-05-22T01:51:28.159Z,83.51
2019-05-22T01:52:28.145Z,83.48
2019-05-22T01:53:28.139Z,83.62
2019-05-22T01:54:28.116Z,83.89
2019-05-22T01:55:28.130Z,83.78
2019-05-22T01:56:28.092Z,83.89
2019-05-22T01:57:28.080Z,84.19
2019-05-22T01:58:28.070Z,83.78
2019-05-22T01:59:28.060Z,84.03
2019-05-22T02:00:28.119Z,83.82
2019-05-22T02:01:28.055Z,83.92
2019-05-22T02:02:28.029Z,83.42
2019-05-22T02:03:28.019Z,83.62
2019-05-22T02:04:28.005Z,83.89
2019-05-22T02:05:28.081Z,83.68
2019-05-22T02:06:27.985Z,83.11
2019-05-22T02:07:27.972Z,83.11
2019-05-22T02:08:27.963Z,83.48
2019-05-22T02:09:27.944Z,83.11
2019-05-22T02:10:27.936Z,83.11
2019-05-22T02:11:27.995Z,83.48
2019-05-22T02:12:27.916Z,83.68
2019-05-22T02:13:27.901Z,83.68
2019-05-22T02:14:27.899Z,83.58
2019-05-22T02:15:27.917Z,83.62
2019-05-22T02:16:27.870Z,83.62
2019-05-22T02:17:27.855Z,83.78
2019-05-22T02:18:27.843Z,83.37
2019-05-22T02:19:27.835Z,83.68
2019-05-22T02:20:27.865Z,83.37
2019-05-22T02:21:27.841Z,83.17
2019-05-22T02:22:27.800Z,83.21
2019-05-22T02:23:27.790Z,83.58
2019-05-22T02:24:27.776Z,83.68
2019-05-22T02:25:27.766Z,83.92
2019-05-22T02:26:27.779Z,83.42
2019-05-22T02:27:27.750Z,83.68
2019-05-22T02:28:27.737Z,84.12
2019-05-22T02:29:27.725Z,83.42
2019-05-22T02:30:27.718Z,84.12
2019-05-22T02:31:27.726Z,83.98
2019-05-22T02:32:27.751Z,84.12
2019-05-22T02:33:27.684Z,84.12
2019-05-22T02:34:27.680Z,83.92
2019-05-22T02:35:27.658Z,84.03
2019-05-22T02:36:27.667Z,84.43
2019-05-22T02:37:27.632Z,84.29
2019-05-22T02:38:27.628Z,84.64
2019-05-22T02:39:27.621Z,84.43
2019-05-22T02:40:27.609Z,84.39
2019-05-22T02:41:27.615Z,84.12
2019-05-22T02:42:27.614Z,83.92
2019-05-22T02:43:27.588Z,84.29
2019-05-22T02:44:27.565Z,84.29
2019-05-22T02:45:27.543Z,84.59
2019-05-22T02:46:27.570Z,84.59
2019-05-22T02:47:27.520Z,84.53
2019-05-22T02:48:27.514Z,84.43
2019-05-22T02:49:27.557Z,84.64
2019-05-22T02:50:27.502Z,85.35
2019-05-22T02:51:27.508Z,84.70
2019-05-22T02:52:27.608Z,84.84
2019-05-22T02:53:27.452Z,85.25
2019-05-22T02:54:27.453Z,84.53
2019-05-22T02:55:27.449Z,84.84
2019-05-22T02:56:27.440Z,85.05
2019-05-22T02:57:27.438Z,85.25
2019-05-22T02:58:27.406Z,85.35
2019-05-22T02:59:27.389Z,85.45
2019-05-22T03:00:27.387Z,85.66
2019-05-22T03:01:27.368Z,85.66
2019-05-22T03:02:27.383Z,85.55
2019-05-22T03:03:27.432Z,85.60
2019-05-22T03:04:27.335Z,85.55
2019-05-22T03:05:27.320Z,86.00
2019-05-22T03:06:27.314Z,85.35
2019-05-22T03:07:27.328Z,85.75
2019-05-22T03:08:27.293Z,85.45
2019-05-22T03:09:27.290Z,85.05
2019-05-22T03:10:27.276Z,85.28
2019-05-22T03:11:27.257Z,85.19
2019-05-22T03:12:27.288Z,85.28
2019-05-22T03:13:27.238Z,85.28
2019-05-22T03:14:27.229Z,85.19
2019-05-22T03:15:27.210Z,85.19
2019-05-22T03:16:27.204Z,85.28
2019-05-22T03:17:27.217Z,84.88
2019-05-22T03:18:27.176Z,84.98
2019-05-22T03:19:27.171Z,84.88
2019-05-22T03:20:27.165Z,85.69
2019-05-22T03:21:27.150Z,85.08
2019-05-22T03:22:27.157Z,84.88
2019-05-22T03:23:27.120Z,84.94
2019-05-22T03:24:27.115Z,84.88
2019-05-22T03:25:27.096Z,84.58
2019-05-22T03:26:27.099Z,85.08
2019-05-22T03:27:27.107Z,85.05
2019-05-22T03:28:27.093Z,85.28
2019-05-22T03:29:27.060Z,84.84
2019-05-22T03:30:27.253Z,85.28
2019-05-22T03:31:27.039Z,85.49
2019-05-22T03:32:27.065Z,85.60
2019-05-22T03:33:27.072Z,85.90
2019-05-22T03:34:27.012Z,85.90
2019-05-22T03:35:26.995Z,86.24
2019-05-22T03:36:26.990Z,85.90
2019-05-22T03:37:26.965Z,86.04
2019-05-22T03:38:26.986Z,85.84
2019-05-22T03:39:26.946Z,85.69
2019-05-22T03:40:26.933Z,85.84
2019-05-22T03:41:26.921Z,86.00
2019-05-22T03:42:26.914Z,85.94
2019-05-22T03:43:26.927Z,86.04
2019-05-22T03:44:26.890Z,85.80
2019-05-22T03:45:26.878Z,85.84
2019-05-22T03:46:26.866Z,85.74
2019-05-22T03:47:26.858Z,85.39
2019-05-22T03:48:26.866Z,85.74
2019-05-22T03:49:30.587Z,85.33
2019-05-22T03:50:26.817Z,85.53
2019-05-22T03:51:27.011Z,85.13
2019-05-22T03:52:26.807Z,85.88
2019-05-22T03:53:26.971Z,85.43
2019-05-22T03:54:26.775Z,85.43
2019-05-22T03:55:26.779Z,85.74
2019-05-22T03:56:26.763Z,85.33
2019-05-22T03:57:26.869Z,85.53
2019-05-22T03:58:26.847Z,85.74
2019-05-22T03:59:26.783Z,85.74
2019-05-22T04:00:26.707Z,84.92
2019-05-22T04:01:26.703Z,85.13
2019-05-22T04:02:26.696Z,85.13
2019-05-22T04:03:26.728Z,85.33
2019-05-22T04:04:26.662Z,84.92
2019-05-22T04:05:26.675Z,85.13
2019-05-22T04:06:26.649Z,85.13
2019-05-22T04:07:26.654Z,84.92
2019-05-22T04:08:26.630Z,85.33
2019-05-22T04:09:26.690Z,84.61
2019-05-22T04:10:26.599Z,84.82
2019-05-22T04:11:27.515Z,85.02
2019-05-22T04:12:26.578Z,84.61
2019-05-22T04:13:26.558Z,84.72
2019-05-22T04:14:26.582Z,85.13
2019-05-22T04:15:26.538Z,85.16
2019-05-22T04:16:26.535Z,85.27
2019-05-22T04:17:26.521Z,84.72
2019-05-22T04:18:26.506Z,85.13
2019-05-22T04:19:26.524Z,85.02
2019-05-22T04:20:26.479Z,85.13
2019-05-22T04:21:26.482Z,84.61
2019-05-22T04:22:26.464Z,84.72
2019-05-22T04:23:26.464Z,85.33
2019-05-22T04:24:26.469Z,85.02
2019-05-22T04:25:26.427Z,84.82
2019-05-22T04:26:26.416Z,84.61
2019-05-22T04:27:26.410Z,85.02
2019-05-22T04:28:26.393Z,85.47
2019-05-22T04:29:26.411Z,85.27
2019-05-22T04:30:26.369Z,85.22
2019-05-22T04:31:26.367Z,85.13
2019-05-22T04:32:26.354Z,85.27
2019-05-22T04:33:26.335Z,85.06
2019-05-22T04:34:26.351Z,85.16
2019-05-22T04:35:26.356Z,85.53
2019-05-22T04:36:26.314Z,84.82
2019-05-22T04:37:26.290Z,85.37
2019-05-22T04:38:26.294Z,85.37
2019-05-22T04:39:26.279Z,85.06
2019-05-22T04:40:26.288Z,85.13
2019-05-22T04:41:26.243Z,85.13
2019-05-22T04:42:26.240Z,85.06
2019-05-22T04:43:26.225Z,84.72
2019-05-22T04:44:26.221Z,84.51
2019-05-22T04:45:26.227Z,84.61
2019-05-22T04:46:26.197Z,85.33
2019-05-22T04:47:26.180Z,84.96
2019-05-22T04:48:26.173Z,84.00
2019-05-22T04:49:26.154Z,84.00
2019-05-22T04:50:26.173Z,84.00
2019-05-22T04:51:26.152Z,84.00
2019-05-22T04:52:26.121Z,84.11
2019-05-22T04:53:26.111Z,84.20
2019-05-22T04:54:26.099Z,84.34
2019-05-22T04:55:26.117Z,84.00
2019-05-22T04:56:26.099Z,84.00
2019-05-22T04:57:26.067Z,83.80
2019-05-22T04:58:26.053Z,84.00
2019-05-22T04:59:26.058Z,83.49
2019-05-22T05:00:26.071Z,83.80
2019-05-22T05:01:26.061Z,83.39
2019-05-22T05:02:26.017Z,83.65
2019-05-22T05:03:25.997Z,83.59
2019-05-22T05:04:25.984Z,83.70
2019-05-22T05:05:25.984Z,83.90
2019-05-22T05:06:26.091Z,83.70
2019-05-22T05:07:25.965Z,83.90
2019-05-22T05:08:26.011Z,83.90
2019-05-22T05:09:25.929Z,83.90
2019-05-22T05:10:25.933Z,83.90
2019-05-22T05:11:25.939Z,83.76
2019-05-22T05:12:25.914Z,83.18
2019-05-22T05:13:25.885Z,83.59
2019-05-22T05:14:25.873Z,83.70
2019-05-22T05:15:25.871Z,83.59
2019-05-22T05:16:25.919Z,84.41
2019-05-22T05:17:25.837Z,84.00
2019-05-22T05:18:25.833Z,84.11
2019-05-22T05:19:25.826Z,83.70
2019-05-22T05:20:25.879Z,84.20
2019-05-22T05:21:25.830Z,84.00
2019-05-22T05:22:25.789Z,83.90
2019-05-22T05:23:25.774Z,83.70
2019-05-22T05:24:25.779Z,82.88
2019-05-22T05:25:25.747Z,84.00
2019-05-22T05:26:25.769Z,83.70
2019-05-22T05:27:25.790Z,83.09
2019-05-22T05:28:25.720Z,83.15
2019-05-22T05:29:25.711Z,83.39
2019-05-22T05:30:25.696Z,83.29
2019-05-22T05:31:25.723Z,83.35
2019-05-22T05:32:25.676Z,83.35
2019-05-22T05:33:25.665Z,82.84
2019-05-22T05:34:25.665Z,82.57
2019-05-22T05:35:25.635Z,82.13
2019-05-22T05:36:25.656Z,81.86
2019-05-22T05:37:25.642Z,82.84
2019-05-22T05:38:25.605Z,82.88
2019-05-22T05:39:25.639Z,81.93
2019-05-22T05:40:25.576Z,81.76
2019-05-22T05:41:25.591Z,81.66
2019-05-22T05:42:25.589Z,82.17
2019-05-22T05:43:25.547Z,81.96
2019-05-22T05:44:25.544Z,81.31
2019-05-22T05:45:25.543Z,81.41
2019-05-22T05:46:25.541Z,81.45
2019-05-22T05:47:25.529Z,81.96
2019-05-22T05:48:25.495Z,81.76
2019-05-22T05:49:25.482Z,81.76
2019-05-22T05:50:38.375Z,81.66
2019-05-22T05:51:26.486Z,81.45
2019-05-22T05:52:25.445Z,81.45
2019-05-22T05:53:25.431Z,81.45
2019-05-22T05:54:25.423Z,80.94
2019-05-22T05:55:25.411Z,80.84
2019-05-22T05:56:25.426Z,81.35
2019-05-22T05:57:25.412Z,81.04
2019-05-22T05:58:25.418Z,80.43
2019-05-22T05:59:25.385Z,80.64
2019-05-22T06:00:25.371Z,80.64
2019-05-22T06:01:25.351Z,80.54
2019-05-22T06:02:25.369Z,80.64
2019-05-22T06:03:25.357Z,79.62
2019-05-22T06:04:34.018Z,79.62
2019-05-22T06:05:26.369Z,80.64
2019-05-22T06:06:25.285Z,80.64
2019-05-22T06:07:25.288Z,80.02
2019-05-22T06:08:25.310Z,79.93
2019-05-22T06:09:25.258Z,79.82
2019-05-22T06:10:25.248Z,80.54
2019-05-22T06:11:25.231Z,79.82
2019-05-22T06:12:25.223Z,79.32
2019-05-22T06:13:25.217Z,78.91
2019-05-22T06:14:25.242Z,78.80
2019-05-22T06:15:25.191Z,78.87
2019-05-22T06:16:25.197Z,79.17
2019-05-22T06:17:25.171Z,78.66
2019-05-22T06:18:25.175Z,78.97
2019-05-22T06:19:25.146Z,79.11
2019-05-22T06:20:25.134Z,78.87
2019-05-22T06:21:25.117Z,78.77
2019-05-22T06:22:25.105Z,78.97
2019-05-22T06:23:25.124Z,78.87
2019-05-22T06:24:25.099Z,79.07
2019-05-22T06:25:25.071Z,78.87
2019-05-22T06:26:25.073Z,78.26
2019-05-22T06:27:25.124Z,77.85
2019-05-22T06:28:25.083Z,77.64
2019-05-22T06:29:27.878Z,78.02
2019-05-22T06:30:25.021Z,78.05
2019-05-22T06:31:25.002Z,78.66
2019-05-22T06:32:25.025Z,77.55
2019-05-22T06:33:24.985Z,77.81
2019-05-22T06:34:24.977Z,77.10
2019-05-22T06:35:24.959Z,77.44
2019-05-22T06:36:24.949Z,77.14
2019-05-22T06:37:24.966Z,76.79
2019-05-22T06:38:24.968Z,76.62
2019-05-22T06:39:24.916Z,77.03
2019-05-22T06:40:24.928Z,77.61
2019-05-22T06:41:24.898Z,77.44
2019-05-22T06:42:24.893Z,77.14
2019-05-22T06:43:24.875Z,77.81
2019-05-22T06:44:24.894Z,76.62
2019-05-22T06:45:24.846Z,77.14
2019-05-22T06:46:24.840Z,77.30
2019-05-22T06:47:24.839Z,77.51
2019-05-22T06:48:24.855Z,77.14
2019-05-22T06:49:24.805Z,77.55
2019-05-22T06:50:24.800Z,77.75
2019-05-22T06:51:24.785Z,77.55
2019-05-22T06:52:24.788Z,77.85
2019-05-22T06:53:24.790Z,77.95
2019-05-22T06:54:24.795Z,78.66
2019-05-22T06:55:24.776Z,79.17
2019-05-22T06:56:24.734Z,78.97
2019-05-22T06:57:24.715Z,78.87
2019-05-22T06:58:24.741Z,78.56
2019-05-22T06:59:24.697Z,78.77
2019-05-22T07:00:24.724Z,78.97
2019-05-22T07:01:24.683Z,79.27
2019-05-22T07:02:24.668Z,79.38
2019-05-22T07:03:24.660Z,79.27
2019-05-22T07:04:24.651Z,79.38
2019-05-22T07:05:24.665Z,79.27
2019-05-22T07:06:24.769Z,79.27
2019-05-22T07:07:24.611Z,79.52
2019-05-22T07:08:24.711Z,80.29
2019-05-22T07:09:24.588Z,79.89
2019-05-22T07:10:24.751Z,80.23
2019-05-22T07:11:24.560Z,80.02
2019-05-22T07:12:24.563Z,80.40
2019-05-22T07:13:24.538Z,80.64
2019-05-22T07:14:24.534Z,80.54
2019-05-22T07:15:24.564Z,80.64
2019-05-22T07:16:24.504Z,81.04
2019-05-22T07:17:24.497Z,80.84
2019-05-22T07:18:24.488Z,81.09
2019-05-22T07:19:24.472Z,80.98
2019-05-22T07:20:24.508Z,81.90
2019-05-22T07:21:33.718Z,82.21
2019-05-22T07:22:25.442Z,82.00
2019-05-22T07:23:24.431Z,81.90
2019-05-22T07:24:24.410Z,81.80
2019-05-22T07:25:24.404Z,81.86
2019-05-22T07:26:24.411Z,81.59
2019-05-22T07:27:24.398Z,81.35
2019-05-22T07:28:24.376Z,80.94
2019-05-22T07:29:24.357Z,81.18
2019-05-22T07:30:24.377Z,80.98
2019-05-22T07:31:24.359Z,81.39
2019-05-22T07:32:24.324Z,80.57
2019-05-22T07:33:24.316Z,80.68
2019-05-22T07:34:24.302Z,80.68
2019-05-22T07:35:24.285Z,80.27
2019-05-22T07:36:24.298Z,80.57
2019-05-22T07:37:24.273Z,80.88
2019-05-22T07:38:24.252Z,79.04
2019-05-22T07:39:24.259Z,79.25
2019-05-22T07:40:24.237Z,79.32
2019-05-22T07:41:24.245Z,79.35
2019-05-22T07:42:24.211Z,79.04
2019-05-22T07:43:24.200Z,79.35
2019-05-22T07:44:24.190Z,78.33
2019-05-22T07:45:24.182Z,78.30
2019-05-22T07:46:24.194Z,77.89
2019-05-22T07:47:24.197Z,78.23
2019-05-22T07:48:24.151Z,78.23
2019-05-22T07:49:24.134Z,77.48
2019-05-22T07:50:24.119Z,77.58
2019-05-22T07:51:24.137Z,77.68
2019-05-22T07:52:24.100Z,77.58
2019-05-22T07:53:24.096Z,77.68
2019-05-22T07:54:24.075Z,78.09
2019-05-22T07:55:24.086Z,77.98
2019-05-22T07:56:24.092Z,77.75
2019-05-22T07:57:24.087Z,76.62
2019-05-22T07:58:24.043Z,77.95
2019-05-22T07:59:24.019Z,76.53
2019-05-22T08:00:24.013Z,77.64
2019-05-22T08:01:24.018Z,77.34
2019-05-22T08:02:23.990Z,76.62
2019-05-22T08:03:23.980Z,76.32
2019-05-22T08:04:23.972Z,76.49
2019-05-22T08:05:23.966Z,76.93
2019-05-22T08:06:23.967Z,76.42
2019-05-22T08:07:23.977Z,76.32
2019-05-22T08:08:23.916Z,76.39
2019-05-22T08:09:23.908Z,76.08
2019-05-22T08:10:23.901Z,76.01
2019-05-22T08:11:23.969Z,75.51
2019-05-22T08:12:23.880Z,74.65
2019-05-22T08:13:23.868Z,74.96
2019-05-22T08:14:23.853Z,74.69
2019-05-22T08:15:23.855Z,74.76
2019-05-22T08:16:23.857Z,74.58
2019-05-22T08:17:23.966Z,74.45
2019-05-22T08:18:23.806Z,74.86
2019-05-22T08:19:23.877Z,73.16
2019-05-22T08:20:23.786Z,73.54
2019-05-22T08:21:24.047Z,73.57
2019-05-22T08:22:23.785Z,73.94
2019-05-22T08:23:23.886Z,73.43
2019-05-22T08:24:23.743Z,73.02
2019-05-22T08:25:23.733Z,72.82
2019-05-22T08:26:23.716Z,72.72
2019-05-22T08:27:23.710Z,72.62
2019-05-22T08:28:23.728Z,72.62
2019-05-22T08:29:23.712Z,72.82
2019-05-22T08:30:23.683Z,72.58
2019-05-22T08:31:23.668Z,71.87
2019-05-22T08:32:23.652Z,72.62
2019-05-22T08:33:23.711Z,77.87
2019-05-22T08:34:23.626Z,78.76
2019-05-22T08:35:23.628Z,80.45
2019-05-22T08:36:23.620Z,78.89
2019-05-22T08:37:23.620Z,74.88
2019-05-22T08:38:23.619Z,72.75
2019-05-22T08:39:23.594Z,76.78
2019-05-22T08:40:23.563Z,73.29
2019-05-22T08:41:23.562Z,70.48
2019-05-22T08:42:23.536Z,69.87
2019-05-22T08:43:23.550Z,71.30
2019-05-22T08:44:23.510Z,72.41
2019-05-22T08:45:23.506Z,72.31
2019-05-22T08:46:23.491Z,70.96
2019-05-22T08:47:23.502Z,70.99
2019-05-22T08:48:23.530Z,73.94
2019-05-22T08:49:23.487Z,70.89
2019-05-22T08:50:23.446Z,71.60
2019-05-22T08:51:23.457Z,72.41
2019-05-22T08:52:24.485Z,72.41
2019-05-22T08:53:23.439Z,70.82
2019-05-22T08:54:23.436Z,74.38
2019-05-22T08:55:23.396Z,74.75
2019-05-22T08:56:23.379Z,72.45
2019-05-22T08:57:23.369Z,74.21
2019-05-22T08:58:23.359Z,69.84
2019-05-22T08:59:23.380Z,71.40
2019-05-22T09:00:23.343Z,72.48
2019-05-22T09:01:23.337Z,72.38
2019-05-22T09:02:23.321Z,71.67
2019-05-22T09:03:23.305Z,70.65
2019-05-22T09:04:23.318Z,70.45
2019-05-22T09:05:23.289Z,70.65
2019-05-22T09:06:23.271Z,71.60
2019-05-22T09:07:23.257Z,70.38
2019-05-22T09:08:23.270Z,70.42
2019-05-22T09:09:23.267Z,69.84
2019-05-22T09:10:26.017Z,71.26
2019-05-22T09:11:23.221Z,70.92
2019-05-22T09:12:23.207Z,71.70
2019-05-22T09:13:23.196Z,71.64
2019-05-22T09:14:23.214Z,72.55
2019-05-22T09:15:23.173Z,72.45
2019-05-22T09:16:23.167Z,72.99
2019-05-22T09:17:23.152Z,74.11
2019-05-22T09:18:23.181Z,72.65
2019-05-22T09:19:23.130Z,72.55
2019-05-22T09:20:23.235Z,72.58
2019-05-22T09:21:23.117Z,72.58
2019-05-22T09:22:39.147Z,72.78
2019-05-22T09:23:24.080Z,73.50
2019-05-22T09:24:23.117Z,72.96
2019-05-22T09:25:23.087Z,72.75
2019-05-22T09:26:23.083Z,73.06
2019-05-22T09:27:23.036Z,73.06
2019-05-22T09:28:23.038Z,72.55
2019-05-22T09:29:23.012Z,72.34
2019-05-22T09:30:23.047Z,71.33
2019-05-22T09:31:23.012Z,71.02
2019-05-22T09:32:23.012Z,71.47
2019-05-22T09:33:22.967Z,71.26
2019-05-22T09:34:23.014Z,71.47
2019-05-22T09:35:22.998Z,71.16
2019-05-22T09:36:22.959Z,71.47
2019-05-22T09:37:22.923Z,71.06
2019-05-22T09:38:22.917Z,71.47
2019-05-22T09:39:22.902Z,71.26
2019-05-22T09:40:22.933Z,71.02
2019-05-22T09:41:22.896Z,71.64
2019-05-22T09:42:22.875Z,70.82
2019-05-22T09:43:22.871Z,70.41
2019-05-22T09:44:22.854Z,70.62
2019-05-22T09:45:22.883Z,70.82
2019-05-22T09:46:23.142Z,70.10
2019-05-22T09:47:22.816Z,70.45
2019-05-22T09:48:22.808Z,70.41
2019-05-22T09:49:24.123Z,71.06
2019-05-22T09:50:22.782Z,70.92
2019-05-22T09:51:22.792Z,70.95
2019-05-22T09:52:22.761Z,71.12
2019-05-22T09:53:22.821Z,71.43
2019-05-22T09:54:22.756Z,71.33
2019-05-22T09:55:22.786Z,71.53
2019-05-22T09:56:22.734Z,70.10
2019-05-22T09:57:22.797Z,70.89
2019-05-22T09:58:22.703Z,70.38
2019-05-22T09:59:22.675Z,70.62
2019-05-22T10:00:22.689Z,70.89
2019-05-22T10:01:22.682Z,70.48
2019-05-22T10:02:22.727Z,69.97
2019-05-22T10:03:22.637Z,68.96
2019-05-22T10:04:22.635Z,69.02
2019-05-22T10:05:22.637Z,68.92
2019-05-22T10:06:22.632Z,69.43
2019-05-22T10:07:22.595Z,69.94
2019-05-22T10:08:22.585Z,70.04
2019-05-22T10:09:22.599Z,69.91
2019-05-22T10:10:22.792Z,69.23
2019-05-22T10:11:22.573Z,68.82
2019-05-22T10:12:22.533Z,68.72
2019-05-22T10:13:22.552Z,68.59
2019-05-22T10:14:22.513Z,69.02
2019-05-22T10:15:22.828Z,68.89
2019-05-22T10:16:22.513Z,69.50
2019-05-22T10:17:22.479Z,69.91
2019-05-22T10:18:22.473Z,68.55
2019-05-22T10:19:22.460Z,68.25
2019-05-22T10:20:22.465Z,68.15
2019-05-22T10:21:22.478Z,67.54
2019-05-22T10:22:22.420Z,67.84
2019-05-22T10:23:22.415Z,68.25
2019-05-22T10:24:22.413Z,68.66
2019-05-22T10:25:22.391Z,68.93
2019-05-22T10:26:22.377Z,68.83
2019-05-22T10:27:22.418Z,69.20
2019-05-22T10:28:22.361Z,66.46
2019-05-22T10:29:22.357Z,66.86
2019-05-22T10:30:22.332Z,66.49
2019-05-22T10:31:22.321Z,66.90
2019-05-22T10:32:22.310Z,67.91
2019-05-22T10:33:22.331Z,67.71
2019-05-22T10:34:22.281Z,68.12
2019-05-22T10:35:22.275Z,67.81
2019-05-22T10:36:22.265Z,66.60
2019-05-22T10:37:22.281Z,67.00
2019-05-22T10:38:22.267Z,67.00
2019-05-22T10:39:24.745Z,67.00
2019-05-22T10:40:22.217Z,67.61
2019-05-22T10:41:22.211Z,67.71
2019-05-22T10:42:22.212Z,66.90
2019-05-22T10:43:22.217Z,67.50
2019-05-22T10:44:22.173Z,67.10
2019-05-22T10:45:22.159Z,67.17
2019-05-22T10:46:22.155Z,71.33
2019-05-22T10:47:22.167Z,69.98
2019-05-22T10:48:22.161Z,65.42
2019-05-22T10:49:22.112Z,64.98
2019-05-22T10:50:22.107Z,63.66
2019-05-22T10:51:22.093Z,61.43
2019-05-22T10:52:22.085Z,61.02
2019-05-22T10:53:33.013Z,61.63
2019-05-22T10:54:23.060Z,62.85
2019-05-22T10:55:22.049Z,61.43
2019-05-22T10:56:22.040Z,61.83
2019-05-22T10:57:22.039Z,62.41
2019-05-22T10:58:22.044Z,62.92
2019-05-22T10:59:22.005Z,65.83
2019-05-22T11:00:21.998Z,64.61
2019-05-22T11:01:21.993Z,61.98
2019-05-22T11:02:21.980Z,61.68
2019-05-22T11:03:22.007Z,61.47
2019-05-22T11:04:21.956Z,62.05
2019-05-22T11:05:21.931Z,61.24
2019-05-22T11:06:21.927Z,60.03
2019-05-22T11:07:21.921Z,60.84
2019-05-22T11:08:21.939Z,61.04
2019-05-22T11:09:21.892Z,60.61
2019-05-22T11:10:21.951Z,60.13
2019-05-22T11:11:21.877Z,60.30
2019-05-22T11:12:21.856Z,61.32
2019-05-22T11:13:21.870Z,60.91
2019-05-22T11:14:21.832Z,60.41
2019-05-22T11:15:21.825Z,61.21
2019-05-22T11:16:21.823Z,60.71
2019-05-22T11:17:21.810Z,60.61
2019-05-22T11:18:21.825Z,60.38
2019-05-22T11:19:21.806Z,60.35
2019-05-22T11:20:21.781Z,60.14
2019-05-22T11:21:21.758Z,60.85
2019-05-22T11:22:21.747Z,60.82
2019-05-22T11:23:21.733Z,59.41
2019-05-22T11:24:21.769Z,59.11
2019-05-22T11:25:21.735Z,59.31
2019-05-22T11:26:21.706Z,58.87
2019-05-22T11:27:21.686Z,59.78
2019-05-22T11:28:21.681Z,58.78
2019-05-22T11:29:21.694Z,59.99
2019-05-22T11:30:21.659Z,59.69
2019-05-22T11:31:21.652Z,58.78
2019-05-22T11:32:21.643Z,58.67
2019-05-22T11:33:21.619Z,59.69
2019-05-22T11:34:21.633Z,61.00
2019-05-22T11:35:21.615Z,59.89
2019-05-22T11:36:21.592Z,59.78
2019-05-22T11:37:21.598Z,56.93
2019-05-22T11:38:21.573Z,57.64
2019-05-22T11:39:38.102Z,59.45
2019-05-22T11:40:22.552Z,57.54
2019-05-22T11:41:21.541Z,57.03
2019-05-22T11:42:21.517Z,57.03
2019-05-22T11:43:21.509Z,57.43
2019-05-22T11:44:21.539Z,57.43
2019-05-22T11:45:21.508Z,57.84
2019-05-22T11:46:21.481Z,58.42
2019-05-22T11:47:21.498Z,57.74
2019-05-22T11:48:21.453Z,57.03
2019-05-22T11:49:21.450Z,56.30
2019-05-22T11:50:21.465Z,56.20
2019-05-22T11:51:21.451Z,56.50
2019-05-22T11:52:21.419Z,58.01
2019-05-22T11:53:21.406Z,56.83
2019-05-22T11:54:21.388Z,57.51
2019-05-22T11:55:21.417Z,56.81
2019-05-22T11:56:21.376Z,56.77
2019-05-22T11:57:21.354Z,56.37
2019-05-22T11:58:21.355Z,56.95
2019-05-22T11:59:21.333Z,54.96
2019-05-22T12:00:21.364Z,56.15
2019-05-22T12:01:21.315Z,55.31
2019-05-22T12:02:21.301Z,54.94
2019-05-22T12:03:21.287Z,54.83
2019-05-22T12:04:21.286Z,55.41
2019-05-22T12:05:21.294Z,54.21
2019-05-22T12:06:21.250Z,54.94
2019-05-22T12:07:21.248Z,55.34
2019-05-22T12:08:21.245Z,55.74
2019-05-22T12:09:21.220Z,55.64
2019-05-22T12:10:21.238Z,55.04
2019-05-22T12:11:21.202Z,54.43
2019-05-22T12:12:21.204Z,53.34
2019-05-22T12:13:21.174Z,55.16
2019-05-22T12:14:21.163Z,56.27
2019-05-22T12:15:21.205Z,56.37
2019-05-22T12:16:21.141Z,55.46
2019-05-22T12:17:36.783Z,55.87
2019-05-22T12:18:22.143Z,55.57
2019-05-22T12:19:21.105Z,55.44
2019-05-22T12:20:21.105Z,55.14
2019-05-22T12:21:21.113Z,55.14
2019-05-22T12:22:21.082Z,55.14
2019-05-22T12:23:21.102Z,55.44
2019-05-22T12:24:28.534Z,53.72
2019-05-22T12:25:22.048Z,53.52
2019-05-22T12:26:21.057Z,54.13
2019-05-22T12:27:21.016Z,54.03
2019-05-22T12:28:21.006Z,55.16
2019-05-22T12:29:20.997Z,55.14
2019-05-22T12:30:20.985Z,55.26
2019-05-22T12:31:21.950Z,54.16
2019-05-22T12:32:20.991Z,54.96
2019-05-22T12:33:20.951Z,54.83
2019-05-22T12:34:20.944Z,54.63
2019-05-22T12:35:20.944Z,55.34
2019-05-22T12:36:20.915Z,54.53
2019-05-22T12:37:20.943Z,54.61
2019-05-22T12:38:20.898Z,54.91
2019-05-22T12:39:20.937Z,53.88
2019-05-22T12:40:20.881Z,53.98
2019-05-22T12:41:21.009Z,54.79
2019-05-22T12:42:20.882Z,55.16
2019-05-22T12:43:20.890Z,54.86
2019-05-22T12:44:20.820Z,53.05
2019-05-22T12:45:20.821Z,52.94
2019-05-22T12:46:20.840Z,52.67
2019-05-22T12:47:20.817Z,51.43
2019-05-22T12:48:20.795Z,52.94
2019-05-22T12:49:20.770Z,53.34
2019-05-22T12:50:20.762Z,53.12
2019-05-22T12:51:20.773Z,51.51
2019-05-22T12:52:20.769Z,51.41